createdAt,value
2017-07-22T00:00:23.335Z,17.60
2017-07-22T00:02:52.301Z,17.50
2017-07-22T00:05:22.063Z,17.50
2017-07-22T00:07:51.058Z,17.50
2017-07-22T00:10:20.018Z,17.60
2017-07-22T00:12:48.957Z,17.50
2017-07-22T00:15:17.950Z,17.60
2017-07-22T00:17:46.928Z,17.70
2017-07-22T00:20:15.864Z,17.40
2017-07-22T00:22:44.889Z,17.50
2017-07-22T00:25:13.898Z,17.50
2017-07-22T00:27:42.871Z,17.60
2017-07-22T00:30:11.853Z,17.60
2017-07-22T00:32:40.810Z,17.60
2017-07-22T00:35:09.756Z,17.50
2017-07-22T00:37:38.759Z,17.50
2017-07-22T00:40:07.716Z,17.50
2017-07-22T00:42:36.697Z,17.60
2017-07-22T00:45:06.408Z,17.50
2017-07-22T00:47:36.135Z,17.60
2017-07-22T00:50:05.101Z,17.60
2017-07-22T00:52:34.054Z,17.60
2017-07-22T00:55:02.995Z,17.50
2017-07-22T00:57:32.807Z,17.70
2017-07-22T01:00:02.538Z,17.60
2017-07-22T01:02:31.514Z,17.60
2017-07-22T01:05:00.488Z,17.40
2017-07-22T01:07:29.480Z,17.50
2017-07-22T01:09:59.297Z,17.40
2017-07-22T01:12:29.067Z,17.40
2017-07-22T01:14:58.112Z,17.40
2017-07-22T01:17:27.084Z,17.30
2017-07-22T01:19:56.041Z,17.40
2017-07-22T01:22:25.212Z,17.40
2017-07-22T01:24:54.199Z,17.40
2017-07-22T01:27:23.145Z,17.40
2017-07-22T01:29:52.139Z,17.40
2017-07-22T01:32:21.088Z,17.40
2017-07-22T01:34:50.115Z,17.30
2017-07-22T01:37:19.072Z,17.50
2017-07-22T01:39:48.057Z,17.40
2017-07-22T01:42:16.997Z,17.30
2017-07-22T01:44:45.964Z,17.40
2017-07-22T01:47:14.930Z,17.30
2017-07-22T01:49:43.892Z,17.30
2017-07-22T01:52:13.611Z,17.30
2017-07-22T01:54:42.583Z,17.30
2017-07-22T01:57:11.520Z,17.30
2017-07-22T01:59:40.493Z,17.50
2017-07-22T02:02:09.604Z,17.50
2017-07-22T02:04:38.610Z,17.50
2017-07-22T02:07:07.580Z,17.30
2017-07-22T02:09:36.540Z,17.20
2017-07-22T02:12:06.382Z,17.20
2017-07-22T02:14:35.653Z,17.20
2017-07-22T02:17:04.614Z,17.30
2017-07-22T02:19:33.574Z,17.30
2017-07-22T02:22:02.550Z,17.30
2017-07-22T02:24:31.530Z,17.30
2017-07-22T02:27:01.232Z,17.40
2017-07-22T02:29:30.207Z,17.30
2017-07-22T02:31:59.341Z,17.30
2017-07-22T02:34:28.384Z,17.40
2017-07-22T02:36:57.641Z,17.40
2017-07-22T02:39:26.620Z,17.40
2017-07-22T02:41:55.561Z,17.30
2017-07-22T02:44:24.517Z,17.30
2017-07-22T02:46:53.485Z,17.30
2017-07-22T02:49:22.495Z,17.40
2017-07-22T02:51:51.470Z,17.40
2017-07-22T02:54:20.417Z,17.40
2017-07-22T02:56:49.391Z,17.50
2017-07-22T02:59:18.353Z,17.30
2017-07-22T03:01:47.293Z,17.30
2017-07-22T03:04:16.277Z,17.40
2017-07-22T03:06:45.227Z,17.30
2017-07-22T03:09:14.174Z,17.20
2017-07-22T03:11:43.354Z,17.40
2017-07-22T03:14:12.300Z,17.30
2017-07-22T03:16:41.223Z,17.20
2017-07-22T03:19:10.230Z,17.30
2017-07-22T03:21:39.201Z,17.30
2017-07-22T03:24:08.140Z,17.40
2017-07-22T03:26:37.128Z,17.40
2017-07-22T03:29:06.074Z,17.50
2017-07-22T03:31:35.026Z,17.30
2017-07-22T03:34:04.777Z,17.40
2017-07-22T03:36:33.733Z,17.40
2017-07-22T03:39:02.703Z,17.40
2017-07-22T03:41:31.660Z,17.50
2017-07-22T03:44:00.630Z,17.40
2017-07-22T03:46:29.632Z,17.20
2017-07-22T03:48:58.693Z,17.30
2017-07-22T03:51:27.665Z,17.30
2017-07-22T03:53:56.735Z,17.30
2017-07-22T03:56:25.671Z,17.30
2017-07-22T03:58:54.637Z,17.50
2017-07-22T04:01:23.583Z,17.40
2017-07-22T04:03:52.550Z,17.50
2017-07-22T04:06:22.288Z,17.60
2017-07-22T04:08:51.244Z,17.60
2017-07-22T04:11:20.278Z,17.50
2017-07-22T04:13:49.318Z,17.60
2017-07-22T04:16:18.254Z,17.60
2017-07-22T04:18:47.204Z,17.30
2017-07-22T04:21:16.968Z,17.50
2017-07-22T04:23:45.918Z,17.40
2017-07-22T04:26:15.657Z,17.50
2017-07-22T04:28:44.734Z,17.40
2017-07-22T04:31:13.677Z,17.50
2017-07-22T04:33:42.803Z,17.60
2017-07-22T04:36:11.746Z,17.50
2017-07-22T04:38:40.728Z,17.40
2017-07-22T04:41:09.701Z,17.50
2017-07-22T04:43:38.656Z,17.60
2017-07-22T04:46:07.635Z,17.40
2017-07-22T04:48:36.628Z,17.30
2017-07-22T04:51:05.580Z,17.50
2017-07-22T04:53:34.535Z,17.60
2017-07-22T04:56:04.273Z,17.60
2017-07-22T04:58:33.248Z,17.60
2017-07-22T05:01:02.227Z,17.50
2017-07-22T05:03:31.189Z,17.60
2017-07-22T05:06:00.191Z,17.70
2017-07-22T05:08:29.166Z,17.80
2017-07-22T05:10:58.142Z,17.80
2017-07-22T05:13:27.122Z,17.70
2017-07-22T05:15:56.082Z,17.70
2017-07-22T05:18:25.077Z,17.80
2017-07-22T05:20:54.804Z,17.80
2017-07-22T05:23:23.750Z,17.80
2017-07-22T05:25:52.723Z,17.90
2017-07-22T05:28:21.665Z,18.00
2017-07-22T05:30:51.411Z,17.90
2017-07-22T05:33:20.543Z,17.90
2017-07-22T05:35:49.471Z,17.90
2017-07-22T05:38:18.450Z,18.00
2017-07-22T05:40:48.255Z,18.10
2017-07-22T05:43:17.281Z,18.10
2017-07-22T05:45:46.276Z,18.10
2017-07-22T05:48:15.220Z,18.20
2017-07-22T05:50:44.178Z,18.30
2017-07-22T05:53:13.153Z,18.20
2017-07-22T05:55:42.116Z,18.20
2017-07-22T05:58:11.848Z,18.20
2017-07-22T06:00:40.819Z,18.20
2017-07-22T06:03:10.624Z,18.10
2017-07-22T06:05:40.366Z,18.20
2017-07-22T06:08:09.309Z,18.20
2017-07-22T06:10:38.276Z,18.10
2017-07-22T06:13:07.328Z,18.00
2017-07-22T06:15:36.322Z,18.00
2017-07-22T06:18:05.290Z,17.90
2017-07-22T06:20:34.264Z,17.90
2017-07-22T06:23:03.220Z,18.00
2017-07-22T06:25:32.190Z,18.10
2017-07-22T06:28:01.143Z,17.90
2017-07-22T06:30:30.095Z,17.60
2017-07-22T06:32:59.139Z,17.60
2017-07-22T06:35:28.217Z,17.70
2017-07-22T06:37:57.209Z,17.80
2017-07-22T06:40:26.171Z,18.00
2017-07-22T06:42:55.212Z,17.90
2017-07-22T06:45:24.204Z,17.80
2017-07-22T06:47:53.135Z,17.80
2017-07-22T06:50:22.116Z,17.80
2017-07-22T06:52:51.896Z,17.80
2017-07-22T06:55:21.834Z,17.90
2017-07-22T06:57:50.797Z,17.90
2017-07-22T07:00:19.797Z,18.20
2017-07-22T07:02:48.748Z,18.10
2017-07-22T07:05:17.726Z,18.20
2017-07-22T07:07:46.723Z,18.10
2017-07-22T07:10:15.937Z,18.00
2017-07-22T07:12:44.863Z,17.90
2017-07-22T07:15:14.630Z,17.60
2017-07-22T07:17:43.570Z,17.70
2017-07-22T07:20:13.357Z,17.60
2017-07-22T07:22:42.344Z,17.60
2017-07-22T07:25:11.354Z,17.90
2017-07-22T07:27:41.084Z,18.00
2017-07-22T07:30:10.263Z,18.00
2017-07-22T07:32:39.242Z,18.00
2017-07-22T07:35:08.960Z,17.90
2017-07-22T07:37:37.939Z,17.90
2017-07-22T07:40:07.669Z,17.90
2017-07-22T07:42:37.432Z,18.00
2017-07-22T07:45:06.470Z,18.00
2017-07-22T07:47:35.408Z,17.90
2017-07-22T07:50:04.406Z,18.10
2017-07-22T07:52:33.455Z,18.30
2017-07-22T07:55:03.192Z,18.20
2017-07-22T07:57:32.250Z,18.10
2017-07-22T08:00:11.198Z,18.40
2017-07-22T08:02:40.138Z,18.20
2017-07-22T08:05:09.094Z,18.40
2017-07-22T08:07:38.069Z,18.40
2017-07-22T08:10:07.168Z,18.50
2017-07-22T08:12:36.183Z,18.50
2017-07-22T08:15:05.130Z,18.70
2017-07-22T08:17:34.858Z,18.80
2017-07-22T08:20:03.934Z,18.80
2017-07-22T08:22:33.649Z,18.90
2017-07-22T08:25:02.647Z,18.90
2017-07-22T08:27:31.617Z,18.90
2017-07-22T08:30:01.382Z,18.90
2017-07-22T08:32:30.404Z,18.90
2017-07-22T08:34:59.360Z,19.00
2017-07-22T08:37:28.487Z,18.80
2017-07-22T08:39:57.472Z,18.80
2017-07-22T08:42:26.500Z,18.80
2017-07-22T08:44:56.233Z,19.10
2017-07-22T08:47:25.229Z,19.10
2017-07-22T08:49:54.192Z,19.10
2017-07-22T08:52:23.954Z,19.20
2017-07-22T08:54:52.932Z,19.10
2017-07-22T08:57:21.897Z,19.20
2017-07-22T08:59:51.086Z,19.50
2017-07-22T09:02:20.082Z,19.80
2017-07-22T09:04:49.042Z,19.80
2017-07-22T09:07:17.988Z,19.80
2017-07-22T09:09:46.990Z,20.00
2017-07-22T09:12:15.966Z,20.30
2017-07-22T09:14:44.924Z,20.60
2017-07-22T09:17:13.874Z,21.00
2017-07-22T09:19:42.845Z,21.00
2017-07-22T09:22:11.828Z,21.10
2017-07-22T09:24:40.814Z,21.00
2017-07-22T09:27:09.797Z,21.00
2017-07-22T09:29:38.727Z,21.10
2017-07-22T09:32:07.717Z,21.40
2017-07-22T09:34:36.881Z,21.80
2017-07-22T09:37:05.852Z,22.10
2017-07-22T09:39:34.851Z,22.50
2017-07-22T09:42:04.610Z,22.60
2017-07-22T09:44:33.648Z,22.60
2017-07-22T09:47:02.590Z,22.80
2017-07-22T09:49:31.567Z,22.50
2017-07-22T09:52:00.639Z,22.40
2017-07-22T09:54:29.578Z,22.50
2017-07-22T09:56:58.546Z,22.50
2017-07-22T09:59:27.489Z,22.60
2017-07-22T10:01:56.468Z,22.70
2017-07-22T10:04:25.434Z,22.70
2017-07-22T10:06:54.364Z,22.90
2017-07-22T10:09:25.679Z,23.10
2017-07-22T10:11:54.772Z,23.20
2017-07-22T10:14:27.433Z,23.40
2017-07-22T10:16:56.370Z,23.90
2017-07-22T10:19:25.335Z,24.00
2017-07-22T10:21:54.323Z,24.10
2017-07-22T10:24:23.283Z,23.70
2017-07-22T10:26:53.011Z,24.10
2017-07-22T10:29:21.954Z,24.00
2017-07-22T10:31:50.947Z,24.10
2017-07-22T10:34:19.898Z,24.10
2017-07-22T10:36:48.952Z,24.20
2017-07-22T10:39:17.888Z,24.00
2017-07-22T10:41:46.941Z,24.20
2017-07-22T10:44:16.664Z,24.20
2017-07-22T10:46:45.662Z,24.20
2017-07-22T10:49:14.600Z,24.50
2017-07-22T10:51:43.539Z,24.40
2017-07-22T10:54:12.532Z,24.60
2017-07-22T10:56:41.489Z,24.50
2017-07-22T10:59:10.495Z,24.80
2017-07-22T11:01:39.462Z,24.90
2017-07-22T11:04:08.443Z,25.00
2017-07-22T11:06:37.405Z,25.20
2017-07-22T11:09:06.389Z,25.30
2017-07-22T11:11:35.322Z,25.30
2017-07-22T11:14:04.298Z,25.50
2017-07-22T11:16:33.273Z,25.70
2017-07-22T11:19:02.225Z,25.90
2017-07-22T11:21:31.184Z,25.90
2017-07-22T11:24:00.124Z,25.90
2017-07-22T11:26:29.096Z,25.70
2017-07-22T11:28:58.826Z,25.40
2017-07-22T11:31:27.793Z,25.40
2017-07-22T11:33:56.762Z,25.90
2017-07-22T11:36:25.717Z,26.20
2017-07-22T11:38:54.689Z,26.80
2017-07-22T11:41:23.657Z,27.40
2017-07-22T11:43:52.617Z,27.70
2017-07-22T11:46:21.573Z,27.80
2017-07-22T11:48:51.208Z,28.20
2017-07-22T11:51:20.168Z,27.80
2017-07-22T11:53:49.194Z,28.40
2017-07-22T11:56:18.137Z,28.50
2017-07-22T11:58:48.303Z,28.50
2017-07-22T12:01:17.265Z,28.50
2017-07-22T12:03:46.264Z,29.10
2017-07-22T12:06:15.245Z,29.40
2017-07-22T12:08:44.637Z,29.30
2017-07-22T12:11:13.991Z,29.50
2017-07-22T12:13:45.335Z,29.80
2017-07-22T12:16:17.305Z,30.00
2017-07-22T12:18:47.071Z,30.20
2017-07-22T12:21:16.024Z,30.20
2017-07-22T12:23:44.996Z,30.30
2017-07-22T12:26:13.950Z,30.50
2017-07-22T12:28:43.047Z,30.80
2017-07-22T12:31:11.987Z,30.90
2017-07-22T12:33:40.993Z,31.00
2017-07-22T12:36:10.254Z,30.80
2017-07-22T12:38:40.369Z,30.30
2017-07-22T12:41:09.318Z,30.20
2017-07-22T12:43:38.318Z,30.00
2017-07-22T12:46:08.061Z,29.10
2017-07-22T12:48:37.014Z,29.10
2017-07-22T12:51:06.752Z,29.00
2017-07-22T12:53:35.714Z,29.00
2017-07-22T12:56:04.713Z,29.90
2017-07-22T12:58:34.423Z,29.80
2017-07-22T13:01:03.413Z,29.80
2017-07-22T13:03:33.218Z,30.90
2017-07-22T13:06:02.275Z,30.80
2017-07-22T13:08:31.217Z,31.90
2017-07-22T13:11:00.202Z,32.10
2017-07-22T13:13:29.156Z,32.20
2017-07-22T13:15:58.146Z,32.60
2017-07-22T13:18:27.115Z,32.40
2017-07-22T13:20:56.278Z,32.50
2017-07-22T13:23:25.998Z,32.90
2017-07-22T13:25:54.964Z,32.90
2017-07-22T13:28:24.676Z,33.10
2017-07-22T13:30:54.421Z,33.40
2017-07-22T13:33:23.382Z,33.30
2017-07-22T13:35:53.139Z,34.70
2017-07-22T13:38:23.308Z,34.50
2017-07-22T13:40:52.274Z,34.40
2017-07-22T13:43:21.237Z,33.90
2017-07-22T13:45:50.207Z,32.80
2017-07-22T13:48:20.292Z,30.40
2017-07-22T13:50:50.248Z,29.90
2017-07-22T13:53:20.157Z,30.00
2017-07-22T13:55:49.114Z,30.00
2017-07-22T13:58:18.870Z,30.10
2017-07-22T14:00:48.480Z,30.10
2017-07-22T14:03:17.459Z,31.20
2017-07-22T14:05:46.511Z,32.10
2017-07-22T14:08:15.469Z,32.60
2017-07-22T14:10:44.448Z,32.80
2017-07-22T14:13:13.432Z,32.00
2017-07-22T14:15:42.386Z,31.40
2017-07-22T14:18:12.142Z,32.30
2017-07-22T14:20:41.087Z,32.20
2017-07-22T14:23:10.821Z,34.00
2017-07-22T14:25:40.112Z,34.00
2017-07-22T14:28:09.855Z,34.10
2017-07-22T14:30:38.874Z,34.10
2017-07-22T14:33:07.842Z,33.20
2017-07-22T14:35:36.817Z,32.10
2017-07-22T14:38:05.789Z,31.30
2017-07-22T14:40:34.742Z,31.30
2017-07-22T14:43:03.732Z,31.70
2017-07-22T14:45:32.714Z,31.80
2017-07-22T14:48:01.751Z,31.40
2017-07-22T14:50:31.489Z,30.90
2017-07-22T14:53:00.441Z,30.80
2017-07-22T14:55:29.391Z,30.70
2017-07-22T14:57:58.401Z,30.40
2017-07-22T15:00:27.485Z,30.40
2017-07-22T15:02:56.412Z,30.00
2017-07-22T15:05:25.398Z,29.70
2017-07-22T15:07:54.345Z,29.60
2017-07-22T15:10:23.399Z,29.50
2017-07-22T15:12:52.340Z,29.10
2017-07-22T15:15:21.321Z,28.60
2017-07-22T15:17:50.305Z,28.50
2017-07-22T15:20:19.245Z,28.60
2017-07-22T15:22:48.226Z,28.60
2017-07-22T15:25:17.249Z,28.50
2017-07-22T15:27:46.207Z,28.30
2017-07-22T15:30:15.176Z,28.10
2017-07-22T15:32:44.134Z,27.80
2017-07-22T15:35:13.110Z,27.70
2017-07-22T15:37:42.057Z,27.90
2017-07-22T15:40:11.011Z,28.00
2017-07-22T15:42:39.984Z,28.00
2017-07-22T15:45:08.926Z,28.00
2017-07-22T15:47:37.897Z,28.00
2017-07-22T15:50:06.889Z,28.40
2017-07-22T15:52:35.829Z,29.00
2017-07-22T15:55:04.790Z,29.30
2017-07-22T15:57:33.721Z,29.50
2017-07-22T16:00:05.313Z,29.50
2017-07-22T16:02:35.734Z,29.40
2017-07-22T16:05:04.718Z,28.90
2017-07-22T16:07:33.663Z,28.60
2017-07-22T16:10:02.650Z,28.30
2017-07-22T16:12:31.598Z,27.60
2017-07-22T16:15:00.698Z,27.50
2017-07-22T16:17:30.135Z,27.40
2017-07-22T16:19:59.106Z,27.30
2017-07-22T16:22:28.828Z,27.40
2017-07-22T16:24:57.800Z,27.40
2017-07-22T16:27:26.818Z,27.40
2017-07-22T16:29:55.773Z,27.40
2017-07-22T16:32:24.893Z,27.60
2017-07-22T16:34:53.873Z,27.50
2017-07-22T16:37:22.950Z,27.40
2017-07-22T16:39:52.729Z,27.80
2017-07-22T16:42:21.686Z,27.80
2017-07-22T16:44:50.633Z,27.70
2017-07-22T16:47:19.609Z,27.80
2017-07-22T16:49:48.768Z,27.90
2017-07-22T16:52:17.930Z,27.90
2017-07-22T16:54:46.916Z,28.00
2017-07-22T16:57:16.647Z,27.60
2017-07-22T16:59:45.606Z,27.60
2017-07-22T17:02:14.592Z,27.60
2017-07-22T17:04:43.577Z,27.30
2017-07-22T17:07:12.566Z,27.40
2017-07-22T17:09:41.586Z,27.20
2017-07-22T17:12:10.565Z,27.10
2017-07-22T17:14:40.392Z,27.00
2017-07-22T17:17:09.377Z,27.00
2017-07-22T17:19:38.307Z,27.10
2017-07-22T17:22:07.289Z,27.10
2017-07-22T17:24:36.308Z,27.00
2017-07-22T17:27:05.262Z,26.90
2017-07-22T17:29:34.235Z,26.90
2017-07-22T17:32:03.181Z,27.10
2017-07-22T17:34:32.151Z,26.80
2017-07-22T17:37:01.102Z,26.80
2017-07-22T17:39:30.086Z,26.70
2017-07-22T17:41:59.100Z,26.60
2017-07-22T17:44:28.082Z,26.70
2017-07-22T17:46:57.020Z,26.70
2017-07-22T17:49:25.990Z,26.50
2017-07-22T17:51:55.074Z,26.60
2017-07-22T17:54:24.806Z,26.20
2017-07-22T17:56:53.820Z,26.20
2017-07-22T17:59:22.790Z,26.00
2017-07-22T18:01:51.774Z,26.10
2017-07-22T18:04:20.708Z,26.00
2017-07-22T18:06:49.667Z,25.70
2017-07-22T18:09:18.765Z,25.80
2017-07-22T18:11:47.725Z,25.70
2017-07-22T18:14:16.697Z,25.60
2017-07-22T18:16:45.649Z,25.80
2017-07-22T18:19:14.608Z,25.80
2017-07-22T18:21:43.591Z,25.60
2017-07-22T18:24:12.574Z,25.60
2017-07-22T18:26:42.343Z,25.40
2017-07-22T18:29:11.728Z,25.30
2017-07-22T18:31:40.709Z,25.20
2017-07-22T18:34:09.706Z,25.20
2017-07-22T18:36:38.686Z,24.80
2017-07-22T18:39:07.821Z,24.60
2017-07-22T18:41:36.778Z,24.50
2017-07-22T18:44:05.755Z,24.40
2017-07-22T18:46:34.719Z,24.20
2017-07-22T18:49:03.682Z,24.10
2017-07-22T18:51:32.625Z,24.00
2017-07-22T18:54:02.390Z,24.00
2017-07-22T18:56:31.355Z,23.90
2017-07-22T18:59:00.352Z,23.80
2017-07-22T19:01:29.284Z,23.70
2017-07-22T19:03:58.251Z,23.70
2017-07-22T19:06:27.206Z,23.50
2017-07-22T19:08:56.943Z,23.40
2017-07-22T19:11:25.880Z,23.40
2017-07-22T19:13:54.848Z,23.30
2017-07-22T19:16:23.795Z,23.30
2017-07-22T19:18:52.772Z,23.20
2017-07-22T19:21:21.774Z,23.00
2017-07-22T19:23:51.536Z,23.10
2017-07-22T19:26:20.621Z,23.10
2017-07-22T19:28:49.649Z,23.00
2017-07-22T19:31:18.615Z,22.90
2017-07-22T19:33:47.595Z,23.00
2017-07-22T19:36:16.553Z,22.80
2017-07-22T19:38:45.517Z,22.70
2017-07-22T19:41:14.493Z,22.60
2017-07-22T19:43:43.477Z,22.70
2017-07-22T19:46:12.436Z,22.70
2017-07-22T19:48:41.416Z,22.70
2017-07-22T19:51:11.223Z,22.70
2017-07-22T19:53:40.198Z,22.70
2017-07-22T19:56:09.994Z,22.60
2017-07-22T19:58:38.968Z,22.50
2017-07-22T20:01:07.964Z,22.50
2017-07-22T20:03:36.896Z,22.50
2017-07-22T20:06:05.881Z,22.50
2017-07-22T20:08:34.876Z,22.50
2017-07-22T20:11:03.853Z,22.50
2017-07-22T20:13:32.878Z,22.40
2017-07-22T20:16:01.851Z,22.50
2017-07-22T20:18:31.656Z,22.30
2017-07-22T20:21:00.656Z,22.30
2017-07-22T20:23:29.642Z,22.40
2017-07-22T20:25:59.384Z,22.50
2017-07-22T20:28:28.384Z,22.40
2017-07-22T20:30:58.414Z,22.30
2017-07-22T20:33:27.394Z,22.30
2017-07-22T20:35:56.366Z,22.30
2017-07-22T20:38:25.331Z,22.30
2017-07-22T20:40:55.103Z,22.20
2017-07-22T20:43:24.054Z,22.20
2017-07-22T20:45:53.152Z,22.20
2017-07-22T20:48:22.117Z,22.20
2017-07-22T20:50:51.151Z,22.20
2017-07-22T20:53:21.147Z,22.40
2017-07-22T20:55:50.869Z,22.40
2017-07-22T20:58:19.942Z,22.40
2017-07-22T21:00:50.549Z,22.40
2017-07-22T21:03:19.512Z,22.30
2017-07-22T21:05:48.468Z,22.10
2017-07-22T21:08:17.474Z,21.80
2017-07-22T21:10:46.445Z,21.70
2017-07-22T21:13:16.177Z,21.50
2017-07-22T21:15:45.182Z,21.50
2017-07-22T21:18:14.174Z,21.50
2017-07-22T21:20:43.140Z,21.40
2017-07-22T21:23:13.093Z,20.90
2017-07-22T21:25:42.038Z,20.90
2017-07-22T21:28:11.005Z,20.70
2017-07-22T21:30:39.986Z,20.50
2017-07-22T21:33:08.966Z,20.30
2017-07-22T21:35:37.910Z,20.20
2017-07-22T21:38:06.995Z,20.20
2017-07-22T21:40:35.940Z,20.20
2017-07-22T21:43:04.937Z,20.20
2017-07-22T21:45:33.899Z,20.20
2017-07-22T21:48:02.872Z,20.00
2017-07-22T21:50:31.837Z,20.00
2017-07-22T21:53:00.812Z,20.00
2017-07-22T21:55:29.771Z,19.90
2017-07-22T21:57:58.762Z,19.90
2017-07-22T22:00:27.742Z,20.00
2017-07-22T22:02:57.951Z,20.10
2017-07-22T22:05:26.954Z,20.20
2017-07-22T22:07:55.918Z,20.30
2017-07-22T22:10:25.131Z,20.20
2017-07-22T22:12:57.685Z,20.20
2017-07-22T22:15:27.444Z,20.20
2017-07-22T22:17:56.400Z,20.40
2017-07-22T22:20:26.137Z,20.50
2017-07-22T22:22:55.139Z,20.40
2017-07-22T22:25:25.212Z,20.40
2017-07-22T22:27:55.283Z,20.40
2017-07-22T22:30:24.254Z,20.30
2017-07-22T22:32:53.212Z,20.50
2017-07-22T22:35:22.165Z,20.40
2017-07-22T22:37:52.087Z,20.30
2017-07-22T22:40:21.393Z,20.30
2017-07-22T22:42:51.118Z,20.30
2017-07-22T22:45:20.082Z,20.30
2017-07-22T22:47:49.770Z,20.40
2017-07-22T22:50:18.731Z,20.40
2017-07-22T22:52:47.697Z,20.50
2017-07-22T22:55:19.314Z,20.40
2017-07-22T22:57:48.302Z,20.30
2017-07-22T23:00:17.281Z,20.20
2017-07-22T23:02:46.830Z,20.30
2017-07-22T23:05:15.963Z,20.30
2017-07-22T23:07:45.698Z,20.20
2017-07-22T23:10:14.684Z,20.20
2017-07-22T23:12:43.698Z,20.20
2017-07-22T23:15:12.718Z,20.30
2017-07-22T23:17:41.827Z,20.20
2017-07-22T23:20:10.797Z,20.20
2017-07-22T23:22:42.469Z,20.20
2017-07-22T23:25:11.440Z,20.30
2017-07-22T23:27:40.437Z,20.10
2017-07-22T23:30:09.408Z,20.10
2017-07-22T23:32:38.398Z,20.00
2017-07-22T23:35:07.357Z,20.20
2017-07-22T23:37:36.319Z,20.10
2017-07-22T23:40:05.303Z,20.10
2017-07-22T23:42:34.273Z,20.10
2017-07-22T23:45:03.266Z,20.10
2017-07-22T23:47:32.263Z,20.20
2017-07-22T23:50:01.386Z,20.20
2017-07-22T23:52:30.361Z,20.10
2017-07-22T23:54:59.328Z,20.00
2017-07-22T23:57:28.404Z,20.00
2017-07-22T23:59:57.371Z,20.10
